sensor_id;sensor_type;location;lat;lon;timestamp;pressure;altitude;pressure_sealevel;temperature
28305;BMP280;15569;42.652;23.040;2023-02-15T00:01:41;94072.72;;;6.06
28305;BMP280;15569;42.652;23.040;2023-02-15T00:04:08;94051.19;;;5.91
28305;BMP280;15569;42.652;23.040;2023-02-15T00:06:34;94077.78;;;6.02
28305;BMP280;15569;42.652;23.040;2023-02-15T00:09:00;94089.28;;;6.03
28305;BMP280;15569;42.652;23.040;2023-02-15T00:11:25;94069.88;;;5.97
28305;BMP280;15569;42.652;23.040;2023-02-15T00:14:23;94080.19;;;5.83
28305;BMP280;15569;42.652;23.040;2023-02-15T00:16:51;94085.22;;;5.79
28305;BMP280;15569;42.652;23.040;2023-02-15T00:19:18;94079.81;;;5.87
28305;BMP280;15569;42.652;23.040;2023-02-15T00:21:44;94077.84;;;5.80
28305;BMP280;15569;42.652;23.040;2023-02-15T00:24:12;94067.22;;;5.89
28305;BMP280;15569;42.652;23.040;2023-02-15T00:26:42;94072.81;;;5.84
28305;BMP280;15569;42.652;23.040;2023-02-15T00:29:08;94085.03;;;5.92
28305;BMP280;15569;42.652;23.040;2023-02-15T00:31:34;94076.03;;;5.82
28305;BMP280;15569;42.652;23.040;2023-02-15T00:34:21;94083.63;;;5.84
28305;BMP280;15569;42.652;23.040;2023-02-15T00:36:48;94082.72;;;5.81
28305;BMP280;15569;42.652;23.040;2023-02-15T00:39:14;94076.94;;;5.85
28305;BMP280;15569;42.652;23.040;2023-02-15T00:41:39;94086.97;;;5.99
28305;BMP280;15569;42.652;23.040;2023-02-15T00:44:05;94085.72;;;5.85
28305;BMP280;15569;42.652;23.040;2023-02-15T00:46:31;94073.91;;;5.81
28305;BMP280;15569;42.652;23.040;2023-02-15T00:48:57;94082.53;;;5.79
28305;BMP280;15569;42.652;23.040;2023-02-15T00:51:23;94069.94;;;5.74
28305;BMP280;15569;42.652;23.040;2023-02-15T00:53:49;94082.88;;;5.83
28305;BMP280;15569;42.652;23.040;2023-02-15T00:56:14;94084.69;;;5.81
28305;BMP280;15569;42.652;23.040;2023-02-15T00:58:40;94073.53;;;5.84
28305;BMP280;15569;42.652;23.040;2023-02-15T01:01:11;94076.78;;;5.83
28305;BMP280;15569;42.652;23.040;2023-02-15T01:03:36;94076.41;;;5.71
28305;BMP280;15569;42.652;23.040;2023-02-15T01:06:03;94080.22;;;5.68
28305;BMP280;15569;42.652;23.040;2023-02-15T01:08:28;94086.44;;;5.86
28305;BMP280;15569;42.652;23.040;2023-02-15T01:10:54;94072.84;;;5.61
28305;BMP280;15569;42.652;23.040;2023-02-15T01:13:20;94074.81;;;5.61
28305;BMP280;15569;42.652;23.040;2023-02-15T01:15:45;94061.16;;;5.66
28305;BMP280;15569;42.652;23.040;2023-02-15T01:18:11;94067.31;;;5.52
28305;BMP280;15569;42.652;23.040;2023-02-15T01:20:38;94068.72;;;5.60
28305;BMP280;15569;42.652;23.040;2023-02-15T01:23:06;94056.84;;;5.40
28305;BMP280;15569;42.652;23.040;2023-02-15T01:25:34;94067.09;;;5.65
28305;BMP280;15569;42.652;23.040;2023-02-15T01:28:00;94074.28;;;5.62
28305;BMP280;15569;42.652;23.040;2023-02-15T01:30:26;94044.47;;;5.30
28305;BMP280;15569;42.652;23.040;2023-02-15T01:32:51;94053.78;;;5.59
28305;BMP280;15569;42.652;23.040;2023-02-15T01:35:17;94062.22;;;5.56
28305;BMP280;15569;42.652;23.040;2023-02-15T01:37:42;94055.78;;;5.66
28305;BMP280;15569;42.652;23.040;2023-02-15T01:40:13;94056.66;;;5.61
28305;BMP280;15569;42.652;23.040;2023-02-15T01:42:38;94043.75;;;5.52
28305;BMP280;15569;42.652;23.040;2023-02-15T01:45:19;94050.53;;;5.68
28305;BMP280;15569;42.652;23.040;2023-02-15T01:47:51;94047.28;;;5.77
28305;BMP280;15569;42.652;23.040;2023-02-15T01:50:30;94045.81;;;5.76
28305;BMP280;15569;42.652;23.040;2023-02-15T01:53:03;94033.09;;;5.69
28305;BMP280;15569;42.652;23.040;2023-02-15T01:55:33;94061.13;;;5.74
28305;BMP280;15569;42.652;23.040;2023-02-15T01:58:00;94040.09;;;5.72
28305;BMP280;15569;42.652;23.040;2023-02-15T02:00:26;94055.19;;;5.75
28305;BMP280;15569;42.652;23.040;2023-02-15T02:02:53;94049.25;;;5.84
28305;BMP280;15569;42.652;23.040;2023-02-15T02:05:20;94037.41;;;5.65
28305;BMP280;15569;42.652;23.040;2023-02-15T02:07:46;94041.56;;;5.66
28305;BMP280;15569;42.652;23.040;2023-02-15T02:10:16;94039.41;;;5.57
28305;BMP280;15569;42.652;23.040;2023-02-15T02:12:43;94050.91;;;5.57
28305;BMP280;15569;42.652;23.040;2023-02-15T02:15:10;94047.69;;;5.51
28305;BMP280;15569;42.652;23.040;2023-02-15T02:25:26;94053.41;;;5.63
28305;BMP280;15569;42.652;23.040;2023-02-15T02:30:45;94061.34;;;5.53
28305;BMP280;15569;42.652;23.040;2023-02-15T02:39:09;94052.88;;;5.57
28305;BMP280;15569;42.652;23.040;2023-02-15T02:41:55;94056.50;;;5.52
28305;BMP280;15569;42.652;23.040;2023-02-15T02:44:27;94059.34;;;5.61
28305;BMP280;15569;42.652;23.040;2023-02-15T02:49:40;94060.97;;;5.64
28305;BMP280;15569;42.652;23.040;2023-02-15T02:52:42;94064.91;;;5.71
28305;BMP280;15569;42.652;23.040;2023-02-15T02:57:41;94053.06;;;5.66
28305;BMP280;15569;42.652;23.040;2023-02-15T03:00:08;94061.88;;;5.59
28305;BMP280;15569;42.652;23.040;2023-02-15T03:02:40;94067.44;;;5.69
28305;BMP280;15569;42.652;23.040;2023-02-15T03:05:10;94069.56;;;5.70
28305;BMP280;15569;42.652;23.040;2023-02-15T03:07:38;94074.44;;;5.72
28305;BMP280;15569;42.652;23.040;2023-02-15T03:10:05;94057.56;;;5.64
28305;BMP280;15569;42.652;23.040;2023-02-15T03:12:35;94078.19;;;5.76
28305;BMP280;15569;42.652;23.040;2023-02-15T03:17:38;94071.72;;;5.79
28305;BMP280;15569;42.652;23.040;2023-02-15T03:20:25;94078.25;;;5.69
28305;BMP280;15569;42.652;23.040;2023-02-15T03:22:56;94082.16;;;5.83
28305;BMP280;15569;42.652;23.040;2023-02-15T03:25:27;94067.44;;;5.61
28305;BMP280;15569;42.652;23.040;2023-02-15T03:28:00;94086.31;;;5.84
28305;BMP280;15569;42.652;23.040;2023-02-15T03:30:28;94086.47;;;5.93
28305;BMP280;15569;42.652;23.040;2023-02-15T03:32:56;94076.59;;;5.73
28305;BMP280;15569;42.652;23.040;2023-02-15T03:35:24;94085.22;;;5.79
28305;BMP280;15569;42.652;23.040;2023-02-15T03:37:58;94065.47;;;5.69
28305;BMP280;15569;42.652;23.040;2023-02-15T03:40:36;94075.19;;;5.57
28305;BMP280;15569;42.652;23.040;2023-02-15T03:43:23;94081.44;;;5.75
28305;BMP280;15569;42.652;23.040;2023-02-15T03:45:54;94078.19;;;5.76
28305;BMP280;15569;42.652;23.040;2023-02-15T03:48:27;94076.03;;;5.82
28305;BMP280;15569;42.652;23.040;2023-02-15T03:50:58;94087.38;;;5.73
28305;BMP280;15569;42.652;23.040;2023-02-15T03:53:46;94089.72;;;5.84
28305;BMP280;15569;42.652;23.040;2023-02-15T03:56:12;94086.84;;;5.82
28305;BMP280;15569;42.652;23.040;2023-02-15T03:58:37;94088.13;;;5.81
28305;BMP280;15569;42.652;23.040;2023-02-15T04:04:38;94088.44;;;5.93
28305;BMP280;15569;42.652;23.040;2023-02-15T04:07:08;94078.94;;;5.84
28305;BMP280;15569;42.652;23.040;2023-02-15T04:09:34;94076.44;;;5.64
28305;BMP280;15569;42.652;23.040;2023-02-15T04:12:18;94080.75;;;5.59
28305;BMP280;15569;42.652;23.040;2023-02-15T04:14:44;94085.03;;;5.77
28305;BMP280;15569;42.652;23.040;2023-02-15T04:17:28;94094.03;;;5.80
28305;BMP280;15569;42.652;23.040;2023-02-15T04:19:53;94097.25;;;5.86
28305;BMP280;15569;42.652;23.040;2023-02-15T04:22:37;94096.91;;;5.89
28305;BMP280;15569;42.652;23.040;2023-02-15T04:25:21;94098.69;;;5.87
28305;BMP280;15569;42.652;23.040;2023-02-15T04:27:49;94103.34;;;5.94
28305;BMP280;15569;42.652;23.040;2023-02-15T04:30:16;94110.75;;;5.93
28305;BMP280;15569;42.652;23.040;2023-02-15T04:32:42;94115.25;;;5.98
28305;BMP280;15569;42.652;23.040;2023-02-15T04:35:08;94108.41;;;5.97
28305;BMP280;15569;42.652;23.040;2023-02-15T04:37:34;94119.84;;;6.13
28305;BMP280;15569;42.652;23.040;2023-02-15T04:39:59;94122.63;;;5.98
28305;BMP280;15569;42.652;23.040;2023-02-15T04:42:25;94125.25;;;6.13
28305;BMP280;15569;42.652;23.040;2023-02-15T04:44:51;94115.06;;;5.96
28305;BMP280;15569;42.652;23.040;2023-02-15T04:47:16;94126.16;;;6.16
28305;BMP280;15569;42.652;23.040;2023-02-15T04:49:42;94126.00;;;6.06
28305;BMP280;15569;42.652;23.040;2023-02-15T04:52:07;94126.34;;;6.18
28305;BMP280;15569;42.652;23.040;2023-02-15T04:54:33;94128.13;;;6.23
28305;BMP280;15569;42.652;23.040;2023-02-15T04:56:58;94117.22;;;5.98
28305;BMP280;15569;42.652;23.040;2023-02-15T04:59:23;94125.63;;;6.17
28305;BMP280;15569;42.652;23.040;2023-02-15T05:01:49;94133.41;;;5.98
28305;BMP280;15569;42.652;23.040;2023-02-15T05:04:14;94132.09;;;6.14
28305;BMP280;15569;42.652;23.040;2023-02-15T05:06:40;94137.72;;;6.09
28305;BMP280;15569;42.652;23.040;2023-02-15T05:09:05;94140.22;;;6.06
28305;BMP280;15569;42.652;23.040;2023-02-15T05:11:30;94136.47;;;5.94
28305;BMP280;15569;42.652;23.040;2023-02-15T05:13:56;94141.84;;;6.02
28305;BMP280;15569;42.652;23.040;2023-02-15T05:16:21;94136.28;;;5.92
28305;BMP280;15569;42.652;23.040;2023-02-15T05:18:46;94128.75;;;5.98
28305;BMP280;15569;42.652;23.040;2023-02-15T05:21:12;94135.75;;;5.94
28305;BMP280;15569;42.652;23.040;2023-02-15T05:23:38;94143.50;;;5.82
28305;BMP280;15569;42.652;23.040;2023-02-15T05:26:04;94146.53;;;5.94
28305;BMP280;15569;42.652;23.040;2023-02-15T05:28:48;94148.34;;;5.76
28305;BMP280;15569;42.652;23.040;2023-02-15T05:31:17;94160.59;;;5.85
28305;BMP280;15569;42.652;23.040;2023-02-15T05:33:43;94158.06;;;5.72
28305;BMP280;15569;42.652;23.040;2023-02-15T05:36:09;94169.25;;;5.68
28305;BMP280;15569;42.652;23.040;2023-02-15T05:38:35;94160.03;;;5.71
28305;BMP280;15569;42.652;23.040;2023-02-15T05:41:05;94155.56;;;5.66
28305;BMP280;15569;42.652;23.040;2023-02-15T05:43:31;94138.50;;;5.64
28305;BMP280;15569;42.652;23.040;2023-02-15T05:45:56;94163.28;;;5.77
28305;BMP280;15569;42.652;23.040;2023-02-15T05:48:24;94167.06;;;5.74
28305;BMP280;15569;42.652;23.040;2023-02-15T05:50:59;94166.53;;;5.68
28305;BMP280;15569;42.652;23.040;2023-02-15T05:53:26;94158.97;;;5.59
28305;BMP280;15569;42.652;23.040;2023-02-15T05:55:52;94168.16;;;5.64
28305;BMP280;15569;42.652;23.040;2023-02-15T05:58:19;94167.06;;;5.59
28305;BMP280;15569;42.652;23.040;2023-02-15T06:00:44;94163.84;;;5.68
28305;BMP280;15569;42.652;23.040;2023-02-15T06:03:09;94171.00;;;5.73
28305;BMP280;15569;42.652;23.040;2023-02-15T06:05:35;94162.41;;;5.75
28305;BMP280;15569;42.652;23.040;2023-02-15T06:08:00;94173.91;;;5.75
28305;BMP280;15569;42.652;23.040;2023-02-15T06:10:25;94169.59;;;5.72
28305;BMP280;15569;42.652;23.040;2023-02-15T06:12:51;94169.97;;;5.69
28305;BMP280;15569;42.652;23.040;2023-02-15T06:15:16;94174.09;;;5.62
28305;BMP280;15569;42.652;23.040;2023-02-15T06:17:42;94182.19;;;5.85
28305;BMP280;15569;42.652;23.040;2023-02-15T06:20:08;94171.03;;;5.66
28305;BMP280;15569;42.652;23.040;2023-02-15T06:22:34;94190.97;;;5.85
28305;BMP280;15569;42.652;23.040;2023-02-15T06:24:59;94185.78;;;5.80
28305;BMP280;15569;42.652;23.040;2023-02-15T06:27:25;94188.81;;;5.91
28305;BMP280;15569;42.652;23.040;2023-02-15T06:29:50;94180.59;;;5.82
28305;BMP280;15569;42.652;23.040;2023-02-15T06:32:15;94175.38;;;5.84
28305;BMP280;15569;42.652;23.040;2023-02-15T06:34:41;94177.84;;;5.89
28305;BMP280;15569;42.652;23.040;2023-02-15T06:37:06;94167.06;;;5.97
28305;BMP280;15569;42.652;23.040;2023-02-15T06:39:33;94180.91;;;6.09
28305;BMP280;15569;42.652;23.040;2023-02-15T06:41:58;94183.59;;;6.09
28305;BMP280;15569;42.652;23.040;2023-02-15T06:44:24;94174.22;;;6.25
28305;BMP280;15569;42.652;23.040;2023-02-15T06:46:49;94176.91;;;6.17
28305;BMP280;15569;42.652;23.040;2023-02-15T06:49:15;94179.94;;;6.29
28305;BMP280;15569;42.652;23.040;2023-02-15T06:51:40;94179.09;;;6.11
28305;BMP280;15569;42.652;23.040;2023-02-15T06:54:05;94187.53;;;6.23
28305;BMP280;15569;42.652;23.040;2023-02-15T06:56:31;94185.88;;;6.27
28305;BMP280;15569;42.652;23.040;2023-02-15T06:58:56;94178.13;;;6.39
28305;BMP280;15569;42.652;23.040;2023-02-15T07:01:21;94177.78;;;6.35
28305;BMP280;15569;42.652;23.040;2023-02-15T07:03:47;94167.16;;;6.29
28305;BMP280;15569;42.652;23.040;2023-02-15T07:06:12;94180.34;;;6.25
28305;BMP280;15569;42.652;23.040;2023-02-15T07:08:38;94183.75;;;6.18
28305;BMP280;15569;42.652;23.040;2023-02-15T07:11:05;94181.25;;;6.05
28305;BMP280;15569;42.652;23.040;2023-02-15T07:13:50;94182.84;;;6.38
28305;BMP280;15569;42.652;23.040;2023-02-15T07:16:17;94186.63;;;6.35
28305;BMP280;15569;42.652;23.040;2023-02-15T07:18:43;94182.09;;;6.38
28305;BMP280;15569;42.652;23.040;2023-02-15T07:21:08;94200.63;;;6.49
28305;BMP280;15569;42.652;23.040;2023-02-15T07:23:37;94192.81;;;6.60
28305;BMP280;15569;42.652;23.040;2023-02-15T07:26:04;94204.25;;;6.36
28305;BMP280;15569;42.652;23.040;2023-02-15T07:28:30;94197.19;;;6.48
28305;BMP280;15569;42.652;23.040;2023-02-15T07:30:56;94196.28;;;6.53
28305;BMP280;15569;42.652;23.040;2023-02-15T07:33:23;94180.94;;;6.63
28305;BMP280;15569;42.652;23.040;2023-02-15T07:35:58;94191.75;;;6.63
28305;BMP280;15569;42.652;23.040;2023-02-15T07:38:25;94167.09;;;6.52
28305;BMP280;15569;42.652;23.040;2023-02-15T07:40:51;94190.56;;;6.89
28305;BMP280;15569;42.652;23.040;2023-02-15T07:43:17;94189.78;;;6.56
28305;BMP280;15569;42.652;23.040;2023-02-15T07:45:42;94185.84;;;6.50
28305;BMP280;15569;42.652;23.040;2023-02-15T07:48:08;94170.72;;;6.47
28305;BMP280;15569;42.652;23.040;2023-02-15T07:50:34;94178.16;;;6.16
28305;BMP280;15569;42.652;23.040;2023-02-15T07:53:01;94186.84;;;5.99
28305;BMP280;15569;42.652;23.040;2023-02-15T07:55:27;94180.03;;;5.98
28305;BMP280;15569;42.652;23.040;2023-02-15T07:57:52;94175.81;;;6.35
28305;BMP280;15569;42.652;23.040;2023-02-15T08:00:20;94178.69;;;6.37
28305;BMP280;15569;42.652;23.040;2023-02-15T08:02:51;94175.72;;;6.58
28305;BMP280;15569;42.652;23.040;2023-02-15T08:05:38;94169.41;;;6.55
28305;BMP280;15569;42.652;23.040;2023-02-15T08:08:03;94178.00;;;6.69
28305;BMP280;15569;42.652;23.040;2023-02-15T08:10:29;94174.06;;;6.70
28305;BMP280;15569;42.652;23.040;2023-02-15T08:13:13;94162.25;;;6.43
28305;BMP280;15569;42.652;23.040;2023-02-15T08:15:39;94178.41;;;6.58
28305;BMP280;15569;42.652;23.040;2023-02-15T08:18:04;94167.19;;;6.69
28305;BMP280;15569;42.652;23.040;2023-02-15T08:20:30;94173.38;;;6.54
28305;BMP280;15569;42.652;23.040;2023-02-15T08:22:56;94180.06;;;6.53
28305;BMP280;15569;42.652;23.040;2023-02-15T08:25:21;94189.03;;;6.63
28305;BMP280;15569;42.652;23.040;2023-02-15T08:27:47;94178.06;;;6.54
28305;BMP280;15569;42.652;23.040;2023-02-15T08:30:13;94183.47;;;6.54
28305;BMP280;15569;42.652;23.040;2023-02-15T08:32:39;94180.16;;;6.78
28305;BMP280;15569;42.652;23.040;2023-02-15T08:35:05;94178.63;;;6.92
28305;BMP280;15569;42.652;23.040;2023-02-15T08:37:30;94187.59;;;7.02
28305;BMP280;15569;42.652;23.040;2023-02-15T08:39:56;94194.53;;;6.81
28305;BMP280;15569;42.652;23.040;2023-02-15T08:42:21;94189.91;;;6.73
28305;BMP280;15569;42.652;23.040;2023-02-15T08:44:46;94191.25;;;6.90
28305;BMP280;15569;42.652;23.040;2023-02-15T08:47:12;94197.31;;;7.05
28305;BMP280;15569;42.652;23.040;2023-02-15T08:49:37;94197.06;;;7.18
28305;BMP280;15569;42.652;23.040;2023-02-15T08:52:03;94186.00;;;6.99
28305;BMP280;15569;42.652;23.040;2023-02-15T08:54:28;94199.31;;;7.29
28305;BMP280;15569;42.652;23.040;2023-02-15T08:56:54;94192.09;;;7.32
28305;BMP280;15569;42.652;23.040;2023-02-15T08:59:21;94200.44;;;7.26
28305;BMP280;15569;42.652;23.040;2023-02-15T09:01:49;94194.75;;;7.15
28305;BMP280;15569;42.652;23.040;2023-02-15T09:04:15;94194.00;;;7.22
28305;BMP280;15569;42.652;23.040;2023-02-15T09:06:42;94198.31;;;7.50
28305;BMP280;15569;42.652;23.040;2023-02-15T09:09:09;94200.94;;;7.32
28305;BMP280;15569;42.652;23.040;2023-02-15T09:11:38;94198.50;;;7.44
28305;BMP280;15569;42.652;23.040;2023-02-15T09:14:07;94191.06;;;7.27
28305;BMP280;15569;42.652;23.040;2023-02-15T09:16:35;94198.06;;;7.55
28305;BMP280;15569;42.652;23.040;2023-02-15T09:19:02;94203.59;;;7.65
28305;BMP280;15569;42.652;23.040;2023-02-15T09:21:30;94204.09;;;7.21
28305;BMP280;15569;42.652;23.040;2023-02-15T09:23:58;94203.19;;;7.43
28305;BMP280;15569;42.652;23.040;2023-02-15T09:26:26;94202.44;;;7.75
28305;BMP280;15569;42.652;23.040;2023-02-15T09:28:54;94187.88;;;7.88
28305;BMP280;15569;42.652;23.040;2023-02-15T09:31:26;94205.59;;;8.06
28305;BMP280;15569;42.652;23.040;2023-02-15T09:33:52;94198.53;;;7.93
28305;BMP280;15569;42.652;23.040;2023-02-15T09:36:29;94198.38;;;7.84
28305;BMP280;15569;42.652;23.040;2023-02-15T09:39:12;94202.97;;;7.98
28305;BMP280;15569;42.652;23.040;2023-02-15T09:44:46;94199.25;;;8.11
28305;BMP280;15569;42.652;23.040;2023-02-15T10:06:37;94194.22;;;7.09
28305;BMP280;15569;42.652;23.040;2023-02-15T10:17:19;94186.19;;;7.51
28305;BMP280;15569;42.652;23.040;2023-02-15T10:28:28;94179.81;;;8.22
28305;BMP280;15569;42.652;23.040;2023-02-15T10:31:08;94186.25;;;7.92
28305;BMP280;15569;42.652;23.040;2023-02-15T10:51:49;94155.25;;;10.18
28305;BMP280;15569;42.652;23.040;2023-02-15T10:57:26;94142.78;;;10.15
28305;BMP280;15569;42.652;23.040;2023-02-15T11:00:07;94143.03;;;10.58
28305;BMP280;15569;42.652;23.040;2023-02-15T11:07:47;94147.91;;;11.40
28305;BMP280;15569;42.652;23.040;2023-02-15T11:13:05;94150.22;;;11.64
28305;BMP280;15569;42.652;23.040;2023-02-15T11:15:36;94135.94;;;11.54
28305;BMP280;15569;42.652;23.040;2023-02-15T11:18:14;94129.09;;;11.96
28305;BMP280;15569;42.652;23.040;2023-02-15T11:20:58;94130.09;;;11.69
28305;BMP280;15569;42.652;23.040;2023-02-15T11:23:25;94117.78;;;11.47
28305;BMP280;15569;42.652;23.040;2023-02-15T11:26:04;94123.53;;;11.84
28305;BMP280;15569;42.652;23.040;2023-02-15T11:28:38;94104.78;;;12.32
28305;BMP280;15569;42.652;23.040;2023-02-15T11:31:22;94109.41;;;11.97
28305;BMP280;15569;42.652;23.040;2023-02-15T11:33:55;94119.34;;;12.58
28305;BMP280;15569;42.652;23.040;2023-02-15T11:36:25;94113.19;;;12.69
28305;BMP280;15569;42.652;23.040;2023-02-15T11:38:57;94109.88;;;12.94
28305;BMP280;15569;42.652;23.040;2023-02-15T11:41:28;94114.63;;;13.28
28305;BMP280;15569;42.652;23.040;2023-02-15T11:43:59;94113.53;;;13.33
28305;BMP280;15569;42.652;23.040;2023-02-15T11:46:28;94110.50;;;13.64
28305;BMP280;15569;42.652;23.040;2023-02-15T11:48:54;94110.84;;;13.70
28305;BMP280;15569;42.652;23.040;2023-02-15T11:51:21;94104.28;;;12.80
28305;BMP280;15569;42.652;23.040;2023-02-15T11:53:48;94103.88;;;13.67
28305;BMP280;15569;42.652;23.040;2023-02-15T11:56:19;94098.19;;;13.51
28305;BMP280;15569;42.652;23.040;2023-02-15T11:59:04;94100.13;;;13.25
28305;BMP280;15569;42.652;23.040;2023-02-15T12:01:37;94088.59;;;13.50
28305;BMP280;15569;42.652;23.040;2023-02-15T12:04:15;94099.75;;;13.91
28305;BMP280;15569;42.652;23.040;2023-02-15T12:06:46;94090.34;;;14.19
28305;BMP280;15569;42.652;23.040;2023-02-15T12:09:44;94086.13;;;14.68
28305;BMP280;15569;42.652;23.040;2023-02-15T12:12:29;94087.44;;;14.94
28305;BMP280;15569;42.652;23.040;2023-02-15T12:14:57;94086.25;;;14.97
28305;BMP280;15569;42.652;23.040;2023-02-15T12:17:26;94070.44;;;15.09
28305;BMP280;15569;42.652;23.040;2023-02-15T12:19:55;94065.72;;;15.39
28305;BMP280;15569;42.652;23.040;2023-02-15T12:22:28;94065.50;;;15.91
28305;BMP280;15569;42.652;23.040;2023-02-15T12:24:56;94072.34;;;16.06
28305;BMP280;15569;42.652;23.040;2023-02-15T12:27:31;94076.97;;;16.17
28305;BMP280;15569;42.652;23.040;2023-02-15T12:30:03;94072.78;;;16.00
28305;BMP280;15569;42.652;23.040;2023-02-15T12:32:34;94051.75;;;16.36
28305;BMP280;15569;42.652;23.040;2023-02-15T12:35:07;94062.72;;;16.98
28305;BMP280;15569;42.652;23.040;2023-02-15T12:37:33;94051.63;;;17.30
28305;BMP280;15569;42.652;23.040;2023-02-15T12:40:00;94049.84;;;17.71
28305;BMP280;15569;42.652;23.040;2023-02-15T12:42:28;94049.22;;;17.90
28305;BMP280;15569;42.652;23.040;2023-02-15T12:47:46;94049.44;;;18.71
28305;BMP280;15569;42.652;23.040;2023-02-15T12:52:46;94038.38;;;19.32
28305;BMP280;15569;42.652;23.040;2023-02-15T12:55:23;94040.59;;;18.74
28305;BMP280;15569;42.652;23.040;2023-02-15T12:58:05;94036.16;;;20.16
28305;BMP280;15569;42.652;23.040;2023-02-15T13:00:31;94041.31;;;20.54
28305;BMP280;15569;42.652;23.040;2023-02-15T13:02:58;94039.66;;;20.94
28305;BMP280;15569;42.652;23.040;2023-02-15T13:05:39;94042.91;;;20.86
28305;BMP280;15569;42.652;23.040;2023-02-15T13:08:14;94051.41;;;21.22
28305;BMP280;15569;42.652;23.040;2023-02-15T13:40:55;94047.94;;;23.69
28305;BMP280;15569;42.652;23.040;2023-02-15T13:46:18;94050.84;;;24.30
28305;BMP280;15569;42.652;23.040;2023-02-15T13:49:00;94048.53;;;24.11
28305;BMP280;15569;42.652;23.040;2023-02-15T13:54:12;94057.34;;;24.51
28305;BMP280;15569;42.652;23.040;2023-02-15T14:00:02;94063.69;;;24.56
28305;BMP280;15569;42.652;23.040;2023-02-15T14:10:48;94066.41;;;24.52
28305;BMP280;15569;42.652;23.040;2023-02-15T14:13:40;94081.72;;;23.99
28305;BMP280;15569;42.652;23.040;2023-02-15T14:19:04;94077.28;;;24.33
28305;BMP280;15569;42.652;23.040;2023-02-15T14:21:34;94078.00;;;24.36
28305;BMP280;15569;42.652;23.040;2023-02-15T14:30:14;94086.75;;;23.63
28305;BMP280;15569;42.652;23.040;2023-02-15T14:32:48;94083.06;;;23.96
28305;BMP280;15569;42.652;23.040;2023-02-15T14:35:20;94078.84;;;24.47
28305;BMP280;15569;42.652;23.040;2023-02-15T14:49:16;94075.06;;;23.72
28305;BMP280;15569;42.652;23.040;2023-02-15T15:02:10;94073.84;;;22.96
28305;BMP280;15569;42.652;23.040;2023-02-15T15:04:42;94073.91;;;23.00
28305;BMP280;15569;42.652;23.040;2023-02-15T15:07:17;94083.53;;;22.57
28305;BMP280;15569;42.652;23.040;2023-02-15T15:09:46;94067.91;;;22.07
28305;BMP280;15569;42.652;23.040;2023-02-15T15:14:52;94080.53;;;21.52
28305;BMP280;15569;42.652;23.040;2023-02-15T15:20:12;94077.00;;;20.20
28305;BMP280;15569;42.652;23.040;2023-02-15T15:22:40;94073.63;;;20.23
28305;BMP280;15569;42.652;23.040;2023-02-15T15:27:41;94087.47;;;18.57
28305;BMP280;15569;42.652;23.040;2023-02-15T15:33:11;94092.91;;;16.52
28305;BMP280;15569;42.652;23.040;2023-02-15T15:43:49;94096.09;;;13.03
28305;BMP280;15569;42.652;23.040;2023-02-15T15:49:01;94105.00;;;12.25
28305;BMP280;15569;42.652;23.040;2023-02-15T15:51:31;94106.78;;;11.99
28305;BMP280;15569;42.652;23.040;2023-02-15T15:53:59;94102.28;;;11.50
28305;BMP280;15569;42.652;23.040;2023-02-15T15:56:33;94096.44;;;11.23
28305;BMP280;15569;42.652;23.040;2023-02-15T15:59:05;94107.03;;;10.88
28305;BMP280;15569;42.652;23.040;2023-02-15T16:01:42;94100.25;;;10.68
28305;BMP280;15569;42.652;23.040;2023-02-15T16:04:13;94099.31;;;10.35
28305;BMP280;15569;42.652;23.040;2023-02-15T16:06:39;94103.75;;;10.01
28305;BMP280;15569;42.652;23.040;2023-02-15T16:09:21;94109.31;;;9.94
28305;BMP280;15569;42.652;23.040;2023-02-15T16:11:50;94098.47;;;9.94
28305;BMP280;15569;42.652;23.040;2023-02-15T16:14:29;94108.56;;;9.55
28305;BMP280;15569;42.652;23.040;2023-02-15T16:16:58;94115.69;;;9.41
28305;BMP280;15569;42.652;23.040;2023-02-15T16:19:28;94115.97;;;9.45
28305;BMP280;15569;42.652;23.040;2023-02-15T16:21:55;94117.56;;;9.48
28305;BMP280;15569;42.652;23.040;2023-02-15T16:29:33;94094.34;;;8.82
28305;BMP280;15569;42.652;23.040;2023-02-15T16:32:03;94113.88;;;8.80
28305;BMP280;15569;42.652;23.040;2023-02-15T16:34:29;94111.38;;;8.65
28305;BMP280;15569;42.652;23.040;2023-02-15T16:39:17;94115.63;;;8.59
28305;BMP280;15569;42.652;23.040;2023-02-15T16:41:43;94123.44;;;8.55
28305;BMP280;15569;42.652;23.040;2023-02-15T16:44:18;94124.53;;;8.25
28305;BMP280;15569;42.652;23.040;2023-02-15T16:46:47;94124.19;;;8.21
28305;BMP280;15569;42.652;23.040;2023-02-15T16:49:19;94129.28;;;8.00
28305;BMP280;15569;42.652;23.040;2023-02-15T16:51:55;94132.81;;;8.10
28305;BMP280;15569;42.652;23.040;2023-02-15T16:54:23;94138.50;;;7.97
28305;BMP280;15569;42.652;23.040;2023-02-15T16:56:49;94125.38;;;7.76
28305;BMP280;15569;42.652;23.040;2023-02-15T16:59:31;94135.94;;;7.65
28305;BMP280;15569;42.652;23.040;2023-02-15T17:01:58;94133.06;;;7.63
28305;BMP280;15569;42.652;23.040;2023-02-15T17:04:29;94132.47;;;7.47
28305;BMP280;15569;42.652;23.040;2023-02-15T17:07:19;94135.81;;;7.38
28305;BMP280;15569;42.652;23.040;2023-02-15T17:09:58;94125.72;;;7.38
28305;BMP280;15569;42.652;23.040;2023-02-15T17:12:46;94137.69;;;7.28
28305;BMP280;15569;42.652;23.040;2023-02-15T17:18:23;94124.28;;;7.05
28305;BMP280;15569;42.652;23.040;2023-02-15T17:20:51;94129.72;;;7.30
28305;BMP280;15569;42.652;23.040;2023-02-15T17:26:24;94141.09;;;7.04
28305;BMP280;15569;42.652;23.040;2023-02-15T17:28:52;94143.38;;;7.15
28305;BMP280;15569;42.652;23.040;2023-02-15T17:31:19;94139.44;;;7.08
28305;BMP280;15569;42.652;23.040;2023-02-15T17:33:45;94135.78;;;7.13
28305;BMP280;15569;42.652;23.040;2023-02-15T17:36:19;94144.09;;;6.83
28305;BMP280;15569;42.652;23.040;2023-02-15T17:39:18;94155.72;;;6.61
28305;BMP280;15569;42.652;23.040;2023-02-15T17:41:44;94133.97;;;6.51
28305;BMP280;15569;42.652;23.040;2023-02-15T17:44:10;94142.81;;;6.84
28305;BMP280;15569;42.652;23.040;2023-02-15T17:46:39;94144.25;;;6.53
28305;BMP280;15569;42.652;23.040;2023-02-15T17:49:05;94147.78;;;6.63
28305;BMP280;15569;42.652;23.040;2023-02-15T17:51:32;94149.50;;;6.36
28305;BMP280;15569;42.652;23.040;2023-02-15T17:54:00;94149.03;;;6.15
28305;BMP280;15569;42.652;23.040;2023-02-15T17:56:44;94146.00;;;5.95